Time;durP1;ratioP1;P1;durP2;ratioP2;P2;SDS_P1;SDS_P2;PMS_P1;PMS_P2;Temp;Humidity;BMP_temperature;BMP_pressure;BME280_temperature;BME280_humidity;BME280_pressure;Samples;Min_cycle;Max_cycle;Signal;HPM_P1;HPM_P2
2022/04/05 00:02:11;;;;;;;;;;;7.50;99.90;;;;;;5110507;28;20491;-77
2022/04/05 00:04:37;;;;;;;;;;;7.50;99.90;;;;;;5109081;28;20390;-77
2022/04/05 00:07:02;;;;;;;;;;;7.40;99.90;;;;;;5109741;28;20022;-77
2022/04/05 00:09:28;;;;;;;;;;;7.40;99.90;;;;;;5108990;28;20302;-77
2022/04/05 00:11:53;;;;;;;;;;;7.50;99.90;;;;;;5109446;28;19976;-77
2022/04/05 00:14:19;;;;;;;;;;;7.40;99.90;;;;;;5110060;28;19984;-77
2022/04/05 00:16:44;;;;;;;;;;;7.40;99.90;;;;;;5109042;28;20086;-77
2022/04/05 00:19:11;;;;;;;;;;;7.40;99.90;;;;;;5110084;28;20398;-77
2022/04/05 00:21:36;;;;;;;;;;;7.40;99.90;;;;;;5109739;28;19934;-77
2022/04/05 00:24:02;;;;;;;;;;;7.40;99.90;;;;;;5108968;28;19923;-77
2022/04/05 00:26:27;;;;;;;;;;;7.30;99.90;;;;;;5107469;28;19974;-78
2022/04/05 00:28:53;;;;;;;;;;;7.30;99.90;;;;;;5109609;28;19923;-77
2022/04/05 00:31:19;;;;;;;;;;;7.40;99.90;;;;;;5100893;28;19924;-78
2022/04/05 00:33:44;;;;;;;;;;;7.40;99.90;;;;;;5071732;28;19931;-77
2022/04/05 00:36:10;;;;;;;;;;;7.40;99.90;;;;;;5102067;28;19924;-77
2022/04/05 00:38:36;;;;;;;;;;;7.30;99.90;;;;;;5109855;28;19931;-77
2022/04/05 00:41:01;;;;;;;;;;;7.30;99.90;;;;;;5108585;28;19930;-78
2022/04/05 00:43:27;;;;;;;;;;;7.30;99.90;;;;;;5109813;28;19931;-77
2022/04/05 00:45:54;;;;;;;;;;;7.30;99.90;;;;;;5108648;28;19973;-77
2022/04/05 00:48:38;;;;;;;;;;;7.30;99.90;;;;;;5109236;28;19931;-77
2022/04/05 00:51:03;;;;;;;;;;;7.20;99.90;;;;;;5108648;28;19947;-77
2022/04/05 00:53:30;;;;;;;;;;;7.10;99.90;;;;;;5107871;28;20397;-77
2022/04/05 00:55:56;;;;;;;;;;;7.10;99.90;;;;;;5093059;28;19931;-77
2022/04/05 00:58:24;;;;;;;;;;;7.00;99.90;;;;;;5113557;28;19924;-77
2022/04/05 01:00:50;;;;;;;;;;;7.00;99.90;;;;;;5113518;27;20370;-77
2022/04/05 01:03:16;;;;;;;;;;;7.00;99.90;;;;;;5112190;28;19930;-77
2022/04/05 01:05:43;;;;;;;;;;;6.90;99.90;;;;;;5112548;28;19924;-78
2022/04/05 01:08:09;;;;;;;;;;;6.90;99.90;;;;;;5113690;28;19931;-77
2022/04/05 01:10:35;;;;;;;;;;;6.80;99.90;;;;;;5111947;28;19931;-77
2022/04/05 01:13:00;;;;;;;;;;;6.80;99.90;;;;;;5113841;28;20349;-77
2022/04/05 01:15:26;;;;;;;;;;;6.80;99.90;;;;;;5111912;28;19928;-77
2022/04/05 01:17:52;;;;;;;;;;;6.80;99.90;;;;;;5112041;28;19924;-78
2022/04/05 01:20:18;;;;;;;;;;;6.80;99.90;;;;;;5112273;28;19927;-77
2022/04/05 01:22:51;;;;;;;;;;;6.80;99.90;;;;;;5095134;28;20007;-78
2022/04/05 01:25:17;;;;;;;;;;;6.70;99.90;;;;;;5095107;28;19923;-77
2022/04/05 01:27:42;;;;;;;;;;;6.70;99.90;;;;;;5111732;28;19931;-77
2022/04/05 01:30:08;;;;;;;;;;;6.70;99.90;;;;;;5113391;28;20390;-77
2022/04/05 01:32:35;;;;;;;;;;;6.70;99.90;;;;;;5111569;28;19959;-77
2022/04/05 01:35:00;;;;;;;;;;;6.60;99.90;;;;;;5107010;28;19924;-77
2022/04/05 01:37:26;;;;;;;;;;;6.60;99.90;;;;;;5092586;28;19931;-77
2022/04/05 01:39:51;;;;;;;;;;;6.60;99.90;;;;;;5091348;28;20321;-77
2022/04/05 01:42:17;;;;;;;;;;;6.50;99.90;;;;;;5091250;28;19928;-77
2022/04/05 01:44:43;;;;;;;;;;;6.50;99.90;;;;;;5091270;28;20437;-78
2022/04/05 01:47:12;;;;;;;;;;;6.50;99.90;;;;;;5092638;28;20014;-78
2022/04/05 01:49:39;;;;;;;;;;;6.40;99.90;;;;;;5090900;28;20410;-78
2022/04/05 01:52:05;;;;;;;;;;;6.40;99.90;;;;;;5091985;28;19928;-77
2022/04/05 01:54:31;;;;;;;;;;;6.40;99.90;;;;;;5092113;28;19924;-77
2022/04/05 01:56:56;;;;;;;;;;;6.40;99.90;;;;;;5092488;28;20034;-78
2022/04/05 01:59:26;;;;;;;;;;;6.40;99.90;;;;;;5090477;28;20015;-77
2022/04/05 02:01:52;;;;;;;;;;;6.40;99.90;;;;;;5090947;28;19924;-78
2022/04/05 02:04:18;;;;;;;;;;;6.30;99.90;;;;;;5090930;28;20386;-78
2022/04/05 02:06:44;;;;;;;;;;;6.40;99.90;;;;;;5101608;28;19935;-78
2022/04/05 02:09:11;;;;;;;;;;;6.30;99.90;;;;;;5111697;28;19931;-78
2022/04/05 02:11:37;;;;;;;;;;;6.30;99.90;;;;;;5110224;28;19946;-78
2022/04/05 02:14:03;;;;;;;;;;;6.30;99.90;;;;;;5111215;28;19947;-78
2022/04/05 02:16:28;;;;;;;;;;;6.30;99.90;;;;;;5111135;28;20287;-78
2022/04/05 02:18:54;;;;;;;;;;;6.30;99.90;;;;;;5110901;28;20014;-78
2022/04/05 02:21:20;;;;;;;;;;;6.30;99.90;;;;;;5112169;27;19970;-78
2022/04/05 02:23:45;;;;;;;;;;;6.30;99.90;;;;;;5112207;28;19940;-78
2022/04/05 02:26:12;;;;;;;;;;;6.30;99.90;;;;;;5110540;28;20363;-78
2022/04/05 02:28:37;;;;;;;;;;;6.30;99.90;;;;;;5110496;28;19955;-78
2022/04/05 02:31:03;;;;;;;;;;;6.30;99.90;;;;;;5110655;28;19974;-77
2022/04/05 02:33:28;;;;;;;;;;;6.30;99.90;;;;;;5112021;27;19971;-77
2022/04/05 02:35:54;;;;;;;;;;;6.30;99.90;;;;;;5101857;28;20622;-78
2022/04/05 02:38:20;;;;;;;;;;;6.30;99.90;;;;;;5093086;28;19976;-78
2022/04/05 02:40:45;;;;;;;;;;;6.30;99.90;;;;;;5112044;28;19924;-78
2022/04/05 02:43:11;;;;;;;;;;;6.30;99.90;;;;;;5111837;28;20038;-78
2022/04/05 02:45:37;;;;;;;;;;;6.30;99.90;;;;;;5093439;28;19924;-78
2022/04/05 02:48:03;;;;;;;;;;;6.30;99.90;;;;;;5093146;28;19923;-78
2022/04/05 02:50:28;;;;;;;;;;;6.30;99.90;;;;;;5111801;28;19931;-78
2022/04/05 02:52:54;;;;;;;;;;;6.30;99.90;;;;;;5092877;28;19928;-78
2022/04/05 02:55:19;;;;;;;;;;;6.30;99.90;;;;;;5093319;28;19981;-77
2022/04/05 02:57:45;;;;;;;;;;;6.30;99.90;;;;;;5093370;28;19931;-78
2022/04/05 03:00:12;;;;;;;;;;;6.30;99.90;;;;;;5093457;28;19924;-78
2022/04/05 03:02:38;;;;;;;;;;;6.30;99.90;;;;;;5111275;28;20027;-78
2022/04/05 03:05:07;;;;;;;;;;;6.30;99.90;;;;;;5110972;28;19931;-78
2022/04/05 03:07:34;;;;;;;;;;;6.30;99.90;;;;;;5107937;28;19934;-78
2022/04/05 03:10:00;;;;;;;;;;;6.30;99.90;;;;;;5110339;28;19924;-78
2022/04/05 03:12:26;;;;;;;;;;;6.30;99.90;;;;;;5109618;28;19998;-78
2022/04/05 03:14:51;;;;;;;;;;;6.30;99.90;;;;;;5110545;28;20006;-78
2022/04/05 03:17:17;;;;;;;;;;;6.30;99.90;;;;;;5110385;28;20018;-78
2022/04/05 03:19:42;;;;;;;;;;;6.30;99.90;;;;;;5110912;28;19935;-78
2022/04/05 03:22:09;;;;;;;;;;;6.30;99.90;;;;;;5109538;28;20333;-78
2022/04/05 03:24:35;;;;;;;;;;;6.30;99.90;;;;;;5109311;28;20010;-78
2022/04/05 03:27:01;;;;;;;;;;;6.30;99.90;;;;;;5109868;28;20011;-78
2022/04/05 03:29:26;;;;;;;;;;;6.30;99.90;;;;;;5109576;28;19977;-78
2022/04/05 03:31:52;;;;;;;;;;;6.30;99.90;;;;;;5109767;28;19924;-78
2022/04/05 03:34:18;;;;;;;;;;;6.30;99.90;;;;;;5110965;28;19923;-78
2022/04/05 03:36:44;;;;;;;;;;;6.30;99.90;;;;;;5110303;28;19928;-78
2022/04/05 03:39:10;;;;;;;;;;;6.30;99.90;;;;;;5110596;28;20310;-78
2022/04/05 03:41:36;;;;;;;;;;;6.30;99.90;;;;;;5110345;28;19980;-78
2022/04/05 03:44:02;;;;;;;;;;;6.30;99.90;;;;;;5110887;28;19924;-78
2022/04/05 03:46:28;;;;;;;;;;;6.30;99.90;;;;;;5108748;28;19924;-78
2022/04/05 03:48:54;;;;;;;;;;;6.30;99.90;;;;;;5108912;28;19928;-78
2022/04/05 03:51:19;;;;;;;;;;;6.30;99.90;;;;;;5109339;28;19970;-78
2022/04/05 03:53:45;;;;;;;;;;;6.30;99.90;;;;;;5109305;28;19931;-78
2022/04/05 03:56:10;;;;;;;;;;;6.30;99.90;;;;;;5108943;28;20321;-78
2022/04/05 03:58:36;;;;;;;;;;;6.30;99.90;;;;;;5108461;28;19931;-78
2022/04/05 04:01:01;;;;;;;;;;;6.30;99.90;;;;;;5109952;28;20027;-78
2022/04/05 04:03:27;;;;;;;;;;;6.30;99.90;;;;;;5109651;28;19928;-78
2022/04/05 04:05:52;;;;;;;;;;;6.30;99.90;;;;;;5109797;28;19924;-78
2022/04/05 04:08:18;;;;;;;;;;;6.30;99.90;;;;;;5109033;28;20378;-78
2022/04/05 04:10:43;;;;;;;;;;;6.30;99.90;;;;;;5110197;28;19974;-78
2022/04/05 04:13:09;;;;;;;;;;;6.30;99.90;;;;;;5108455;28;19927;-78
2022/04/05 04:15:35;;;;;;;;;;;6.30;99.90;;;;;;5108959;28;20014;-78
2022/04/05 04:18:00;;;;;;;;;;;6.30;99.90;;;;;;5109195;28;20006;-78
2022/04/05 04:20:26;;;;;;;;;;;6.30;99.90;;;;;;5109399;28;19928;-78
2022/04/05 04:22:51;;;;;;;;;;;6.30;99.90;;;;;;5110282;28;19923;-78
2022/04/05 04:25:17;;;;;;;;;;;6.30;99.90;;;;;;5110006;28;19923;-78
2022/04/05 04:27:42;;;;;;;;;;;6.30;99.90;;;;;;5108545;28;20302;-78
2022/04/05 04:30:08;;;;;;;;;;;6.30;99.90;;;;;;5108436;28;19986;-78
2022/04/05 04:32:33;;;;;;;;;;;6.30;99.90;;;;;;5108616;28;19984;-78
2022/04/05 04:34:59;;;;;;;;;;;6.30;99.90;;;;;;5108598;28;19971;-78
2022/04/05 04:37:24;;;;;;;;;;;6.30;99.90;;;;;;5109569;28;20369;-78
2022/04/05 04:39:50;;;;;;;;;;;6.30;99.90;;;;;;5108657;28;19923;-78
2022/04/05 04:42:15;;;;;;;;;;;6.30;99.90;;;;;;5108374;28;19923;-77
2022/04/05 04:44:41;;;;;;;;;;;6.30;99.90;;;;;;5107750;28;19924;-77
2022/04/05 04:47:07;;;;;;;;;;;6.30;99.90;;;;;;5108198;28;20317;-78
2022/04/05 04:49:32;;;;;;;;;;;6.30;99.90;;;;;;5108511;28;19935;-78
2022/04/05 04:51:58;;;;;;;;;;;6.30;99.90;;;;;;5109494;28;20047;-78
2022/04/05 04:54:23;;;;;;;;;;;6.30;99.90;;;;;;5108415;28;19952;-78
2022/04/05 04:56:49;;;;;;;;;;;6.30;99.90;;;;;;5109425;28;19928;-78
2022/04/05 04:59:14;;;;;;;;;;;6.30;99.90;;;;;;5109399;28;20018;-78
2022/04/05 05:01:40;;;;;;;;;;;6.30;99.90;;;;;;5108369;28;20093;-78
2022/04/05 05:04:05;;;;;;;;;;;6.30;99.90;;;;;;5108430;28;20309;-77
2022/04/05 05:06:31;;;;;;;;;;;6.30;99.90;;;;;;5107695;28;19931;-78
2022/04/05 05:08:56;;;;;;;;;;;6.40;99.90;;;;;;5109509;28;19930;-78
2022/04/05 05:11:22;;;;;;;;;;;6.40;99.90;;;;;;5109654;28;19928;-78
2022/04/05 05:13:48;;;;;;;;;;;6.30;99.90;;;;;;5108205;28;20030;-78
2022/04/05 05:16:14;;;;;;;;;;;6.30;99.90;;;;;;5090663;28;19924;-78
2022/04/05 05:18:39;;;;;;;;;;;6.30;99.90;;;;;;5108325;28;19969;-78
2022/04/05 05:21:05;;;;;;;;;;;6.30;99.90;;;;;;5107964;28;19924;-78
2022/04/05 05:23:31;;;;;;;;;;;6.30;99.90;;;;;;5108285;28;19931;-78
2022/04/05 05:25:56;;;;;;;;;;;6.30;99.90;;;;;;5109267;28;20436;-78
2022/04/05 05:28:22;;;;;;;;;;;6.40;99.90;;;;;;5108025;28;20006;-78
2022/04/05 05:30:47;;;;;;;;;;;6.40;99.90;;;;;;5108974;28;20392;-78
2022/04/05 05:33:13;;;;;;;;;;;6.30;99.90;;;;;;5107982;28;19976;-78
2022/04/05 05:35:38;;;;;;;;;;;6.40;99.90;;;;;;5109125;28;20368;-78
2022/04/05 05:38:04;;;;;;;;;;;6.40;99.90;;;;;;5108237;28;19923;-78
2022/04/05 05:40:29;;;;;;;;;;;6.40;99.90;;;;;;5108712;28;19928;-78
2022/04/05 05:42:57;;;;;;;;;;;6.40;99.90;;;;;;5110522;28;19975;-78
2022/04/05 05:45:23;;;;;;;;;;;6.40;99.90;;;;;;5111764;28;19969;-78
2022/04/05 05:47:49;;;;;;;;;;;6.40;99.90;;;;;;5112584;28;19932;-78
2022/04/05 05:50:15;;;;;;;;;;;6.40;99.90;;;;;;5111874;28;20038;-77
2022/04/05 05:52:41;;;;;;;;;;;6.50;99.90;;;;;;5112203;28;19930;-77
2022/04/05 05:55:08;;;;;;;;;;;6.50;99.90;;;;;;5101760;28;19982;-78
2022/04/05 05:57:34;;;;;;;;;;;6.50;99.90;;;;;;5109323;28;19935;-77
2022/04/05 06:00:00;;;;;;;;;;;6.50;99.90;;;;;;5112740;28;19924;-77
2022/04/05 06:02:26;;;;;;;;;;;6.50;99.90;;;;;;5112344;28;19928;-77
2022/04/05 06:04:51;;;;;;;;;;;6.50;99.90;;;;;;5112455;28;20278;-78
2022/04/05 06:07:17;;;;;;;;;;;6.50;99.90;;;;;;5112152;28;19928;-77
2022/04/05 06:09:42;;;;;;;;;;;6.60;99.90;;;;;;5112453;28;19931;-77
2022/04/05 06:12:08;;;;;;;;;;;6.60;99.90;;;;;;5111607;28;20294;-77
2022/04/05 06:14:34;;;;;;;;;;;6.60;99.90;;;;;;5111106;28;19971;-77
2022/04/05 06:16:59;;;;;;;;;;;6.60;99.90;;;;;;5112046;28;19930;-77
2022/04/05 06:19:24;;;;;;;;;;;6.70;99.90;;;;;;5111225;28;20011;-77
2022/04/05 06:21:50;;;;;;;;;;;6.70;99.90;;;;;;5112077;28;20517;-77
2022/04/05 06:24:15;;;;;;;;;;;6.70;99.90;;;;;;5111128;28;19931;-77
2022/04/05 06:26:41;;;;;;;;;;;6.80;99.90;;;;;;5111938;28;19935;-77
2022/04/05 06:29:06;;;;;;;;;;;6.80;99.90;;;;;;5111870;28;19932;-78
2022/04/05 06:31:32;;;;;;;;;;;6.80;99.90;;;;;;5110333;28;19923;-77
2022/04/05 06:33:58;;;;;;;;;;;6.90;99.90;;;;;;5112022;28;19924;-77
2022/04/05 06:36:24;;;;;;;;;;;6.90;99.90;;;;;;5093838;28;19977;-77
2022/04/05 06:38:49;;;;;;;;;;;6.90;99.90;;;;;;5089847;28;19928;-77
2022/04/05 06:41:15;;;;;;;;;;;7.00;99.90;;;;;;5091079;28;19989;-78
2022/04/05 06:43:40;;;;;;;;;;;7.00;99.90;;;;;;5090208;28;19928;-76
2022/04/05 06:46:06;;;;;;;;;;;7.00;99.90;;;;;;5089914;28;19931;-77
2022/04/05 06:48:31;;;;;;;;;;;7.10;99.90;;;;;;5090967;28;19928;-78
2022/04/05 06:50:57;;;;;;;;;;;7.00;99.90;;;;;;5091390;28;20029;-77
2022/04/05 06:53:22;;;;;;;;;;;7.10;99.90;;;;;;5089079;28;19924;-78
2022/04/05 06:55:48;;;;;;;;;;;7.10;99.90;;;;;;5090051;28;20050;-77
2022/04/05 06:58:13;;;;;;;;;;;7.20;99.90;;;;;;5090961;28;19947;-77
2022/04/05 07:00:39;;;;;;;;;;;7.20;99.90;;;;;;5090596;28;19928;-77
2022/04/05 07:03:05;;;;;;;;;;;7.20;99.90;;;;;;5089929;28;19924;-77
2022/04/05 07:05:30;;;;;;;;;;;7.20;99.90;;;;;;5090870;28;19924;-78
2022/04/05 07:07:56;;;;;;;;;;;7.30;99.90;;;;;;5109906;28;19969;-77
2022/04/05 07:10:21;;;;;;;;;;;7.30;99.90;;;;;;5111022;28;20278;-77
2022/04/05 07:12:47;;;;;;;;;;;7.30;99.90;;;;;;5111288;28;20378;-78
2022/04/05 07:15:13;;;;;;;;;;;7.40;99.90;;;;;;5109462;28;19924;-78
2022/04/05 07:17:39;;;;;;;;;;;7.40;99.90;;;;;;5109521;28;20011;-78
2022/04/05 07:20:10;;;;;;;;;;;7.40;99.90;;;;;;5092878;28;20537;-76
2022/04/05 07:22:36;;;;;;;;;;;7.50;99.90;;;;;;5109606;28;20010;-75
2022/04/05 07:25:03;;;;;;;;;;;7.50;99.90;;;;;;5109588;28;19924;-75
2022/04/05 07:27:29;;;;;;;;;;;7.50;99.90;;;;;;5110421;28;19924;-78
2022/04/05 07:29:54;;;;;;;;;;;7.60;99.90;;;;;;5111158;28;19928;-75
2022/04/05 07:32:20;;;;;;;;;;;7.60;99.90;;;;;;5110693;28;19930;-75
2022/04/05 07:34:45;;;;;;;;;;;7.60;99.90;;;;;;5110106;28;19923;-75
2022/04/05 07:37:11;;;;;;;;;;;7.70;99.90;;;;;;5092716;28;20537;-75
2022/04/05 07:39:38;;;;;;;;;;;7.70;99.90;;;;;;5075664;28;19924;-75
2022/04/05 07:42:03;;;;;;;;;;;7.60;99.90;;;;;;5111017;28;19968;-75
2022/04/05 07:44:29;;;;;;;;;;;7.70;99.90;;;;;;5109923;28;19963;-75
2022/04/05 07:46:54;;;;;;;;;;;7.70;99.90;;;;;;5110464;28;19962;-75
2022/04/05 07:49:20;;;;;;;;;;;7.70;99.90;;;;;;5110350;28;19970;-75
2022/04/05 07:51:45;;;;;;;;;;;7.70;99.90;;;;;;5110452;28;19924;-75
2022/04/05 07:54:11;;;;;;;;;;;7.70;99.90;;;;;;5091624;28;20293;-75
2022/04/05 07:56:36;;;;;;;;;;;7.80;99.90;;;;;;5110378;28;19971;-75
2022/04/05 07:59:02;;;;;;;;;;;7.80;99.90;;;;;;5075705;28;20294;-75
2022/04/05 08:01:29;;;;;;;;;;;7.80;99.90;;;;;;5109744;28;20405;-75
2022/04/05 08:03:55;;;;;;;;;;;7.90;99.90;;;;;;5110566;28;19931;-75
2022/04/05 08:06:20;;;;;;;;;;;7.90;99.90;;;;;;5109297;28;19927;-75
2022/04/05 08:08:46;;;;;;;;;;;7.90;99.90;;;;;;5110183;28;19969;-75
2022/04/05 08:11:11;;;;;;;;;;;7.90;99.90;;;;;;5110196;28;19923;-75
2022/04/05 08:13:37;;;;;;;;;;;7.90;99.90;;;;;;5108066;28;19928;-76
2022/04/05 08:16:02;;;;;;;;;;;7.90;99.90;;;;;;5109555;28;20290;-76
2022/04/05 08:18:28;;;;;;;;;;;7.90;99.90;;;;;;5109687;28;20271;-76
2022/04/05 08:20:54;;;;;;;;;;;7.90;99.90;;;;;;5108373;28;20008;-76
2022/04/05 08:23:20;;;;;;;;;;;7.90;99.90;;;;;;5108194;28;19930;-76
2022/04/05 08:25:45;;;;;;;;;;;7.90;99.90;;;;;;5109684;28;19927;-76
2022/04/05 08:28:11;;;;;;;;;;;7.90;99.90;;;;;;5109707;28;19930;-76
2022/04/05 08:30:36;;;;;;;;;;;7.90;99.90;;;;;;5091610;28;20394;-75
2022/04/05 08:33:02;;;;;;;;;;;7.90;99.90;;;;;;5108196;28;19977;-76
2022/04/05 08:35:27;;;;;;;;;;;7.90;99.90;;;;;;5109254;28;20270;-76
2022/04/05 08:37:54;;;;;;;;;;;7.90;99.90;;;;;;5109908;28;19930;-76
2022/04/05 08:40:20;;;;;;;;;;;7.90;99.90;;;;;;5108088;28;19931;-76
2022/04/05 08:42:48;;;;;;;;;;;7.90;99.90;;;;;;5108239;28;20006;-76
2022/04/05 08:45:14;;;;;;;;;;;8.00;99.90;;;;;;5109594;28;20399;-76
2022/04/05 08:47:41;;;;;;;;;;;8.00;99.90;;;;;;5108502;28;19928;-76
2022/04/05 08:50:07;;;;;;;;;;;8.00;99.90;;;;;;5109054;28;19928;-76
2022/04/05 08:52:34;;;;;;;;;;;8.10;99.90;;;;;;5107929;28;19934;-76
2022/04/05 08:55:00;;;;;;;;;;;8.10;99.90;;;;;;5109750;28;19924;-77
2022/04/05 08:57:25;;;;;;;;;;;8.10;99.90;;;;;;5109531;28;19977;-76
2022/04/05 08:59:51;;;;;;;;;;;8.10;99.90;;;;;;5108358;28;20278;-77
2022/04/05 09:02:26;;;;;;;;;;;8.10;99.90;;;;;;5109251;28;19980;-76
2022/04/05 09:04:52;;;;;;;;;;;8.10;99.90;;;;;;5108350;28;20010;-76
2022/04/05 09:07:21;;;;;;;;;;;8.10;99.90;;;;;;5109340;28;19928;-76
2022/04/05 09:10:07;;;;;;;;;;;8.10;99.90;;;;;;5109097;28;19927;-76
2022/04/05 09:12:40;;;;;;;;;;;8.10;99.90;;;;;;5107638;28;19976;-76
2022/04/05 09:15:34;;;;;;;;;;;8.10;99.90;;;;;;5109641;28;20010;-76
2022/04/05 09:18:00;;;;;;;;;;;8.20;99.90;;;;;;5108531;28;19924;-76
2022/04/05 09:20:26;;;;;;;;;;;8.30;99.90;;;;;;5112801;28;19952;-76
2022/04/05 09:22:56;;;;;;;;;;;8.40;99.90;;;;;;5111880;28;20007;-76
2022/04/05 09:25:23;;;;;;;;;;;8.50;99.90;;;;;;5111929;28;19968;-76
2022/04/05 09:27:52;;;;;;;;;;;8.50;99.90;;;;;;5112088;28;20023;-76
2022/04/05 09:30:19;;;;;;;;;;;8.40;99.90;;;;;;5095185;28;19924;-76
2022/04/05 09:32:48;;;;;;;;;;;8.50;99.90;;;;;;5113086;28;20022;-77
2022/04/05 09:35:15;;;;;;;;;;;8.50;99.90;;;;;;5111229;28;19980;-76
2022/04/05 09:37:40;;;;;;;;;;;8.50;99.90;;;;;;5112080;28;19940;-76
2022/04/05 09:40:35;;;;;;;;;;;8.50;99.90;;;;;;5111867;28;19923;-76
2022/04/05 09:43:04;;;;;;;;;;;8.50;99.90;;;;;;5098937;28;20023;-76
2022/04/05 09:45:49;;;;;;;;;;;8.50;99.90;;;;;;5112891;27;19928;-76
2022/04/05 09:48:15;;;;;;;;;;;8.40;99.90;;;;;;5111594;28;19928;-76
2022/04/05 09:51:01;;;;;;;;;;;8.40;99.90;;;;;;5112764;28;20072;-76
2022/04/05 09:53:27;;;;;;;;;;;8.30;99.90;;;;;;5112532;28;19935;-76
2022/04/05 09:56:22;;;;;;;;;;;8.30;99.90;;;;;;5111281;28;19924;-76
2022/04/05 09:58:55;;;;;;;;;;;8.30;99.90;;;;;;5093852;28;19934;-76
2022/04/05 10:01:25;;;;;;;;;;;8.30;99.90;;;;;;5111270;28;19924;-76
2022/04/05 10:04:10;;;;;;;;;;;8.20;99.90;;;;;;5111248;28;20061;-76
2022/04/05 10:06:39;;;;;;;;;;;8.20;99.90;;;;;;5112509;28;19928;-76
2022/04/05 10:09:06;;;;;;;;;;;8.20;99.90;;;;;;5110999;28;19924;-76
2022/04/05 10:11:32;;;;;;;;;;;8.20;99.90;;;;;;5111371;28;19990;-76
2022/04/05 10:13:58;;;;;;;;;;;8.10;99.90;;;;;;5110918;28;19928;-76
2022/04/05 10:16:25;;;;;;;;;;;8.10;99.90;;;;;;5110982;28;19924;-76
2022/04/05 10:18:52;;;;;;;;;;;8.20;99.90;;;;;;5111214;28;19924;-76
2022/04/05 10:21:19;;;;;;;;;;;8.10;99.90;;;;;;5110919;28;20321;-76
2022/04/05 10:23:46;;;;;;;;;;;8.20;99.90;;;;;;5093801;28;19928;-76
2022/04/05 10:26:16;;;;;;;;;;;8.10;99.90;;;;;;5111159;28;19931;-76
2022/04/05 10:28:43;;;;;;;;;;;8.10;99.90;;;;;;5092849;28;19923;-76
2022/04/05 10:31:16;;;;;;;;;;;8.10;99.90;;;;;;5093898;28;19931;-75
2022/04/05 10:33:57;;;;;;;;;;;8.10;99.90;;;;;;5110238;28;19923;-76
2022/04/05 10:36:23;;;;;;;;;;;8.20;99.90;;;;;;5094051;28;19981;-76
2022/04/05 10:39:07;;;;;;;;;;;8.30;99.90;;;;;;5073158;28;19928;-76
2022/04/05 10:41:33;;;;;;;;;;;8.30;99.90;;;;;;5090181;28;19935;-76
2022/04/05 10:44:18;;;;;;;;;;;8.40;99.90;;;;;;5090002;28;19924;-76
2022/04/05 10:46:53;;;;;;;;;;;8.40;99.90;;;;;;5089373;28;19974;-77
2022/04/05 10:49:35;;;;;;;;;;;8.40;99.90;;;;;;5089344;28;19930;-76
2022/04/05 10:52:05;;;;;;;;;;;8.40;99.90;;;;;;5090846;28;20391;-76
2022/04/05 10:54:35;;;;;;;;;;;8.40;99.90;;;;;;5072469;28;20397;-76
2022/04/05 10:57:26;;;;;;;;;;;8.40;99.90;;;;;;5091293;28;19990;-76
2022/04/05 11:00:00;;;;;;;;;;;8.40;99.90;;;;;;5089782;28;19928;-76
2022/04/05 11:02:27;;;;;;;;;;;8.40;99.90;;;;;;5089306;28;19924;-76
2022/04/05 11:04:58;;;;;;;;;;;8.50;99.90;;;;;;5073045;28;19930;-76
2022/04/05 11:07:24;;;;;;;;;;;8.60;99.90;;;;;;5106571;28;20465;-76
2022/04/05 11:09:53;;;;;;;;;;;8.60;99.90;;;;;;5111182;28;20010;-76
2022/04/05 11:12:30;;;;;;;;;;;8.60;99.90;;;;;;5109115;28;19930;-76
2022/04/05 11:14:57;;;;;;;;;;;8.70;99.90;;;;;;5109722;28;19975;-76
2022/04/05 11:17:24;;;;;;;;;;;8.80;99.90;;;;;;5092630;28;19966;-76
2022/04/05 11:19:51;;;;;;;;;;;8.80;99.90;;;;;;5109570;28;19954;-76
2022/04/05 11:22:19;;;;;;;;;;;8.90;99.90;;;;;;5109037;28;19924;-76
2022/04/05 11:25:04;;;;;;;;;;;8.80;99.90;;;;;;5110326;28;19934;-76
2022/04/05 11:27:46;;;;;;;;;;;8.80;99.90;;;;;;5109132;28;20293;-76
2022/04/05 11:30:21;;;;;;;;;;;8.70;99.90;;;;;;5109199;28;19924;-76
2022/04/05 11:33:05;;;;;;;;;;;8.70;99.90;;;;;;5110646;27;19931;-76
2022/04/05 11:35:33;;;;;;;;;;;8.70;99.90;;;;;;5103389;28;20012;-76
2022/04/05 11:37:59;;;;;;;;;;;8.70;99.90;;;;;;5109928;28;19924;-76
2022/04/05 11:40:24;;;;;;;;;;;8.70;99.90;;;;;;5092083;28;20052;-78
2022/04/05 11:42:50;;;;;;;;;;;8.80;99.90;;;;;;5092069;28;20014;-76
2022/04/05 11:45:16;;;;;;;;;;;8.80;99.90;;;;;;5092064;28;19999;-76
2022/04/05 11:47:50;;;;;;;;;;;8.80;99.90;;;;;;5091726;28;19924;-76
2022/04/05 11:50:17;;;;;;;;;;;8.90;99.90;;;;;;5091419;28;19923;-76
2022/04/05 11:52:43;;;;;;;;;;;9.00;99.90;;;;;;5109977;28;19934;-76
2022/04/05 11:58:09;;;;;;;;;;;9.10;99.90;;;;;;5091868;28;19931;-76
2022/04/05 12:00:49;;;;;;;;;;;9.20;99.90;;;;;;5109558;28;19927;-76
2022/04/05 12:03:15;;;;;;;;;;;9.10;99.90;;;;;;5092058;28;19968;-76
2022/04/05 12:05:41;;;;;;;;;;;9.10;99.90;;;;;;5110086;28;20010;-76
2022/04/05 12:08:09;;;;;;;;;;;9.10;99.90;;;;;;5109341;28;19928;-76
2022/04/05 12:10:36;;;;;;;;;;;9.10;99.90;;;;;;5107799;28;20330;-76
2022/04/05 12:13:02;;;;;;;;;;;9.30;99.90;;;;;;5091393;28;20366;-76
2022/04/05 12:15:27;;;;;;;;;;;9.30;99.90;;;;;;5110032;28;19928;-77
2022/04/05 12:18:12;;;;;;;;;;;9.30;99.90;;;;;;5108382;28;19930;-76
2022/04/05 12:20:37;;;;;;;;;;;9.30;99.90;;;;;;5108108;28;20018;-76
2022/04/05 12:23:03;;;;;;;;;;;9.40;99.90;;;;;;5108045;28;20039;-76
2022/04/05 12:25:28;;;;;;;;;;;9.40;99.90;;;;;;5108505;28;19931;-76
2022/04/05 12:27:56;;;;;;;;;;;9.50;99.90;;;;;;5091215;28;19935;-76
2022/04/05 12:30:28;;;;;;;;;;;9.60;99.90;;;;;;5108197;28;19931;-76
2022/04/05 12:32:54;;;;;;;;;;;9.70;99.90;;;;;;5107941;28;19934;-76
2022/04/05 12:35:19;;;;;;;;;;;9.60;99.90;;;;;;5108948;28;19923;-76
2022/04/05 12:37:46;;;;;;;;;;;9.60;99.90;;;;;;5108137;28;20019;-76
2022/04/05 12:40:22;;;;;;;;;;;9.50;99.90;;;;;;5108401;28;19923;-76
2022/04/05 12:42:47;;;;;;;;;;;9.50;99.90;;;;;;5109262;28;20015;-76
2022/04/05 12:45:13;;;;;;;;;;;9.40;99.90;;;;;;5108558;28;20006;-76
2022/04/05 12:47:43;;;;;;;;;;;9.40;99.90;;;;;;5091756;28;20373;-76
2022/04/05 12:50:09;;;;;;;;;;;9.40;99.90;;;;;;5108434;28;20014;-77
2022/04/05 12:52:35;;;;;;;;;;;9.40;99.90;;;;;;5110638;28;20015;-77
2022/04/05 12:55:02;;;;;;;;;;;9.50;99.90;;;;;;5095752;28;19924;-76
2022/04/05 12:57:35;;;;;;;;;;;9.50;99.90;;;;;;5112169;28;19924;-77
2022/04/05 13:00:13;;;;;;;;;;;9.50;99.90;;;;;;5113796;28;19923;-77
2022/04/05 13:02:40;;;;;;;;;;;9.50;99.90;;;;;;5112240;28;20081;-77
2022/04/05 13:07:57;;;;;;;;;;;9.40;99.90;;;;;;5112061;28;19974;-77
2022/04/05 13:10:33;;;;;;;;;;;9.50;99.90;;;;;;5095694;28;19963;-77
2022/04/05 13:13:11;;;;;;;;;;;9.50;99.90;;;;;;5112339;28;19924;-76
2022/04/05 13:15:36;;;;;;;;;;;9.50;99.90;;;;;;5112798;28;19931;-77
2022/04/05 13:18:05;;;;;;;;;;;9.50;99.90;;;;;;5111973;28;19924;-76
2022/04/05 13:20:31;;;;;;;;;;;9.50;99.90;;;;;;5111636;28;20364;-76
2022/04/05 13:23:01;;;;;;;;;;;9.50;99.90;;;;;;5112134;28;19967;-76
2022/04/05 13:25:36;;;;;;;;;;;9.50;99.90;;;;;;5112992;28;19923;-76
2022/04/05 13:28:03;;;;;;;;;;;9.50;99.90;;;;;;5111686;28;19963;-76
2022/04/05 13:30:29;;;;;;;;;;;9.50;99.90;;;;;;5111094;28;19969;-76
2022/04/05 13:33:02;;;;;;;;;;;9.50;99.90;;;;;;5111225;28;19927;-76
2022/04/05 13:35:27;;;;;;;;;;;9.50;99.90;;;;;;5111306;28;19980;-76
2022/04/05 13:37:52;;;;;;;;;;;9.50;99.90;;;;;;5111278;28;19924;-76
2022/04/05 13:40:18;;;;;;;;;;;9.60;99.90;;;;;;5110881;28;20335;-76
2022/04/05 13:42:43;;;;;;;;;;;9.50;99.90;;;;;;5111129;28;19931;-77
2022/04/05 13:45:09;;;;;;;;;;;9.60;99.90;;;;;;5111915;28;19924;-77
2022/04/05 13:47:34;;;;;;;;;;;9.50;99.90;;;;;;5111113;28;20404;-77
2022/04/05 13:50:01;;;;;;;;;;;9.50;99.90;;;;;;5110907;28;20022;-77
2022/04/05 13:52:26;;;;;;;;;;;9.50;99.90;;;;;;5110792;28;19968;-77
2022/04/05 13:54:53;;;;;;;;;;;9.50;99.90;;;;;;5111384;28;20242;-77
2022/04/05 13:57:20;;;;;;;;;;;9.50;99.90;;;;;;5110916;28;19943;-77
2022/04/05 13:59:46;;;;;;;;;;;9.50;99.90;;;;;;5112380;28;19928;-77
2022/04/05 14:02:11;;;;;;;;;;;9.50;99.90;;;;;;5110667;28;19928;-77
2022/04/05 14:04:36;;;;;;;;;;;9.50;99.90;;;;;;5110827;28;19979;-77
2022/04/05 14:07:02;;;;;;;;;;;9.50;99.90;;;;;;5110827;28;19948;-77
2022/04/05 14:09:31;;;;;;;;;;;9.40;99.90;;;;;;5110880;28;19928;-77
2022/04/05 14:11:56;;;;;;;;;;;9.40;99.90;;;;;;5111916;28;20084;-76
2022/04/05 14:14:22;;;;;;;;;;;9.40;99.90;;;;;;5110744;28;20498;-76
2022/04/05 14:16:47;;;;;;;;;;;9.40;99.90;;;;;;5111220;28;19947;-76
2022/04/05 14:19:13;;;;;;;;;;;9.40;99.90;;;;;;5110350;28;20045;-76
2022/04/05 14:21:38;;;;;;;;;;;9.30;99.90;;;;;;5110471;28;20056;-76
2022/04/05 14:24:04;;;;;;;;;;;9.30;99.90;;;;;;5110965;28;20064;-77
2022/04/05 14:26:30;;;;;;;;;;;9.40;99.90;;;;;;5110810;28;19932;-77
2022/04/05 14:28:56;;;;;;;;;;;9.30;99.90;;;;;;5111707;28;19923;-77
2022/04/05 14:31:22;;;;;;;;;;;9.40;99.90;;;;;;5111641;28;19931;-77
2022/04/05 14:33:47;;;;;;;;;;;9.30;99.90;;;;;;5110456;28;19931;-77
2022/04/05 14:36:13;;;;;;;;;;;9.30;99.90;;;;;;5111734;28;19924;-77
2022/04/05 14:38:38;;;;;;;;;;;9.30;99.90;;;;;;5110458;28;20463;-77